createdAt,value
2022-10-14T00:01:21.605Z,12.10
2022-10-14T00:03:49.379Z,12.20
2022-10-14T00:06:24.938Z,12.10
2022-10-14T00:08:52.065Z,12.10
2022-10-14T00:11:24.185Z,12.10
2022-10-14T00:13:55.536Z,12.10
2022-10-14T00:16:30.252Z,12.10
2022-10-14T00:18:58.435Z,12.10
2022-10-14T00:21:26.775Z,12.10
2022-10-14T00:23:54.053Z,12.10
2022-10-14T00:26:28.305Z,12.10
2022-10-14T00:28:56.731Z,12.00
2022-10-14T00:31:24.451Z,11.80
2022-10-14T00:33:51.868Z,11.80
2022-10-14T00:36:24.837Z,11.70
2022-10-14T00:38:53.972Z,11.60
2022-10-14T00:41:33.986Z,11.60
2022-10-14T00:44:02.765Z,11.60
2022-10-14T00:46:34.894Z,11.50
2022-10-14T00:49:23.251Z,11.50
2022-10-14T00:52:00.348Z,11.40
2022-10-14T00:54:35.231Z,11.30
2022-10-14T00:57:03.307Z,11.30
2022-10-14T00:59:32.923Z,11.30
2022-10-14T01:02:00.023Z,11.30
2022-10-14T01:04:27.635Z,11.30
2022-10-14T01:07:08.103Z,11.30
2022-10-14T01:09:55.200Z,11.30
2022-10-14T01:12:39.453Z,11.40
2022-10-14T01:15:29.175Z,11.40
2022-10-14T01:18:35.231Z,11.40
2022-10-14T01:21:29.750Z,11.40
2022-10-14T01:24:25.598Z,11.40
2022-10-14T01:27:23.555Z,11.40
2022-10-14T01:30:05.541Z,11.40
2022-10-14T01:32:52.575Z,11.40
2022-10-14T01:35:41.246Z,11.40
2022-10-14T01:38:17.807Z,11.40
2022-10-14T01:40:57.139Z,11.50
2022-10-14T01:43:27.996Z,11.50
2022-10-14T01:45:57.288Z,11.50
2022-10-14T01:48:32.102Z,11.50
2022-10-14T01:51:03.363Z,11.50
2022-10-14T01:53:37.851Z,11.60
2022-10-14T01:56:06.377Z,11.60
2022-10-14T01:58:35.268Z,11.60
2022-10-14T02:01:07.518Z,11.60
2022-10-14T02:03:46.776Z,11.70
2022-10-14T02:06:38.562Z,11.70
2022-10-14T02:09:20.663Z,11.80
2022-10-14T02:12:05.890Z,11.80
2022-10-14T02:14:58.883Z,11.80
2022-10-14T02:17:42.386Z,11.80
2022-10-14T02:20:40.886Z,11.90
2022-10-14T02:23:25.464Z,11.90
2022-10-14T02:25:54.450Z,11.90
2022-10-14T02:28:26.326Z,12.00
2022-10-14T02:31:01.662Z,12.00
2022-10-14T02:33:36.803Z,12.00
2022-10-14T02:36:08.107Z,12.00
2022-10-14T02:38:35.865Z,12.00
2022-10-14T02:41:08.391Z,12.00
2022-10-14T02:43:35.686Z,12.00
2022-10-14T02:46:03.626Z,12.00
2022-10-14T02:48:30.959Z,12.00
2022-10-14T02:50:58.451Z,12.00
2022-10-14T02:53:25.495Z,12.10
2022-10-14T02:55:52.566Z,12.10
2022-10-14T02:58:19.656Z,12.10
2022-10-14T03:00:49.734Z,12.10
2022-10-14T03:03:16.784Z,12.10
2022-10-14T03:05:44.365Z,12.10
2022-10-14T03:08:11.463Z,12.10
2022-10-14T03:10:38.535Z,12.10
2022-10-14T03:13:05.533Z,12.10
2022-10-14T03:15:32.546Z,12.10
2022-10-14T03:17:59.575Z,12.10
2022-10-14T03:20:26.582Z,12.10
2022-10-14T03:22:53.566Z,12.10
2022-10-14T03:25:20.674Z,12.10
2022-10-14T03:27:47.734Z,12.10
2022-10-14T03:30:14.825Z,12.10
2022-10-14T03:32:41.870Z,12.10
2022-10-14T03:35:10.383Z,12.10
2022-10-14T03:37:37.637Z,12.10
2022-10-14T03:40:05.359Z,12.10
2022-10-14T03:42:32.353Z,12.10
2022-10-14T03:44:59.375Z,12.00
2022-10-14T03:47:26.473Z,12.00
2022-10-14T03:49:53.474Z,12.00
2022-10-14T03:52:20.911Z,12.00
2022-10-14T03:54:48.149Z,12.00
2022-10-14T03:57:15.215Z,12.00
2022-10-14T03:59:42.428Z,12.00
2022-10-14T04:02:09.568Z,12.00
2022-10-14T04:04:36.580Z,12.00
2022-10-14T04:07:03.707Z,12.00
2022-10-14T04:09:30.823Z,12.00
2022-10-14T04:11:58.198Z,12.00
2022-10-14T04:14:26.576Z,12.00
2022-10-14T04:16:53.666Z,12.00
2022-10-14T04:19:20.801Z,12.00
2022-10-14T04:21:47.828Z,12.00
2022-10-14T04:24:15.734Z,12.00
2022-10-14T04:26:43.214Z,12.00
2022-10-14T04:29:10.330Z,12.00
2022-10-14T04:31:37.652Z,12.00
2022-10-14T04:34:05.710Z,12.00
2022-10-14T04:36:32.723Z,12.00
2022-10-14T04:38:59.758Z,12.00
2022-10-14T04:41:27.703Z,12.00
2022-10-14T04:43:54.780Z,12.00
2022-10-14T04:46:24.736Z,12.00
2022-10-14T04:48:51.756Z,12.00
2022-10-14T04:51:18.845Z,12.00
2022-10-14T04:53:45.977Z,12.00
2022-10-14T04:56:13.094Z,12.00
2022-10-14T04:58:40.151Z,12.10
2022-10-14T05:01:07.262Z,12.10
2022-10-14T05:03:34.330Z,12.10
2022-10-14T05:06:01.364Z,12.10
2022-10-14T05:08:28.415Z,12.10
2022-10-14T05:10:55.482Z,12.10
2022-10-14T05:13:22.492Z,12.10
2022-10-14T05:15:49.550Z,12.10
2022-10-14T05:18:16.561Z,12.10
2022-10-14T05:20:43.582Z,12.10
2022-10-14T05:23:10.623Z,12.10
2022-10-14T05:25:37.846Z,12.10
2022-10-14T05:28:04.949Z,12.10
2022-10-14T05:30:34.644Z,12.10
2022-10-14T05:33:02.129Z,12.10
2022-10-14T05:35:53.728Z,12.10
2022-10-14T05:38:16.197Z,12.10
2022-10-14T05:40:43.745Z,12.10
2022-10-14T05:43:10.726Z,12.20
2022-10-14T05:45:37.745Z,12.10
2022-10-14T05:48:05.336Z,12.20
2022-10-14T05:50:32.343Z,12.20
2022-10-14T05:53:01.671Z,12.20
2022-10-14T05:55:28.706Z,12.20
2022-10-14T05:57:56.886Z,12.20
2022-10-14T06:00:25.853Z,12.20
2022-10-14T06:02:53.268Z,12.20
2022-10-14T06:05:20.391Z,12.20
2022-10-14T06:07:47.569Z,12.20
2022-10-14T06:10:14.695Z,12.20
2022-10-14T06:12:41.998Z,12.10
2022-10-14T06:15:09.613Z,12.20
2022-10-14T06:17:36.889Z,12.20
2022-10-14T06:20:04.402Z,12.20
2022-10-14T06:22:31.455Z,12.20
2022-10-14T06:25:03.845Z,12.20
2022-10-14T06:27:31.568Z,12.20
2022-10-14T06:29:58.546Z,12.20
2022-10-14T06:32:25.535Z,12.20
2022-10-14T06:34:52.600Z,12.20
2022-10-14T06:37:19.589Z,12.20
2022-10-14T06:39:46.596Z,12.20
2022-10-14T06:42:13.622Z,12.30
2022-10-14T06:44:40.659Z,12.30
2022-10-14T06:47:08.257Z,12.30
2022-10-14T06:49:35.379Z,12.40
2022-10-14T06:52:02.619Z,12.40
2022-10-14T06:54:29.640Z,12.40
2022-10-14T06:56:56.683Z,12.40
2022-10-14T06:59:23.932Z,12.40
2022-10-14T07:01:51.073Z,12.40
2022-10-14T07:04:18.155Z,12.50
2022-10-14T07:06:45.199Z,12.50
2022-10-14T07:09:12.300Z,12.50
2022-10-14T07:11:39.351Z,12.50
2022-10-14T07:14:06.338Z,12.50
2022-10-14T07:16:33.435Z,12.50
2022-10-14T07:19:00.675Z,12.60
2022-10-14T07:21:28.752Z,12.60
2022-10-14T07:23:55.742Z,12.60
2022-10-14T07:26:25.904Z,12.70
2022-10-14T07:28:52.982Z,12.80
2022-10-14T07:31:20.087Z,12.90
2022-10-14T07:33:47.139Z,12.90
2022-10-14T07:36:21.508Z,13.00
2022-10-14T07:38:50.090Z,13.00
2022-10-14T07:41:22.239Z,13.10
2022-10-14T07:43:56.087Z,13.10
2022-10-14T07:46:29.728Z,13.20
2022-10-14T07:49:06.765Z,13.20
2022-10-14T07:51:35.628Z,13.30
2022-10-14T07:54:06.102Z,13.20
2022-10-14T07:56:34.738Z,13.30
2022-10-14T07:59:01.821Z,13.10
2022-10-14T08:01:29.154Z,13.00
2022-10-14T08:03:56.298Z,13.00
2022-10-14T08:06:23.830Z,13.00
2022-10-14T08:08:51.223Z,13.10
2022-10-14T08:11:27.481Z,13.10
2022-10-14T08:13:55.527Z,13.20
2022-10-14T08:16:26.319Z,13.20
2022-10-14T08:18:56.302Z,13.20
2022-10-14T08:21:24.161Z,13.20
2022-10-14T08:23:52.219Z,13.20
2022-10-14T08:26:28.327Z,13.20
2022-10-14T08:28:55.852Z,13.30
2022-10-14T08:31:23.219Z,13.30
2022-10-14T08:33:50.469Z,13.20
2022-10-14T08:36:19.869Z,13.20
2022-10-14T08:38:47.767Z,13.30
2022-10-14T08:41:14.931Z,13.30
2022-10-14T08:44:06.068Z,13.30
2022-10-14T08:46:52.816Z,13.30
2022-10-14T08:49:50.253Z,13.30
2022-10-14T08:52:37.753Z,13.20
2022-10-14T08:55:41.751Z,13.20
2022-10-14T08:58:32.056Z,13.20
2022-10-14T09:01:13.523Z,13.20
2022-10-14T09:03:42.999Z,13.20
2022-10-14T09:06:49.431Z,13.30
2022-10-14T09:09:27.003Z,13.40
2022-10-14T09:12:06.449Z,13.50
2022-10-14T09:14:45.769Z,13.50
2022-10-14T09:17:28.021Z,13.50
2022-10-14T09:20:06.876Z,13.40
2022-10-14T09:22:34.033Z,13.40
2022-10-14T09:25:01.371Z,13.40
2022-10-14T09:27:29.663Z,13.50
2022-10-14T09:30:02.328Z,13.50
2022-10-14T09:32:47.639Z,13.50
2022-10-14T09:35:24.480Z,13.60
2022-10-14T09:37:52.815Z,13.70
2022-10-14T09:40:34.871Z,13.70
2022-10-14T09:43:10.488Z,13.80
2022-10-14T09:46:00.402Z,13.80
2022-10-14T09:48:50.674Z,14.10
2022-10-14T09:51:26.255Z,14.00
2022-10-14T09:53:56.887Z,14.20
2022-10-14T09:56:42.664Z,14.40
2022-10-14T09:59:23.530Z,14.40
2022-10-14T10:02:02.902Z,14.60
2022-10-14T10:04:41.847Z,14.80
2022-10-14T10:07:32.579Z,15.00
2022-10-14T10:10:19.511Z,15.10
2022-10-14T10:12:47.279Z,15.10
2022-10-14T10:15:21.532Z,15.10
2022-10-14T10:17:49.717Z,15.10
2022-10-14T10:20:28.270Z,15.10
2022-10-14T10:23:25.210Z,15.10
2022-10-14T10:25:52.994Z,15.10
2022-10-14T10:28:31.711Z,15.20
2022-10-14T10:31:56.086Z,15.20
2022-10-14T10:34:56.750Z,15.20
2022-10-14T10:37:37.038Z,15.20
2022-10-14T10:40:34.751Z,15.10
2022-10-14T10:43:33.416Z,15.10
2022-10-14T10:46:24.180Z,15.00
2022-10-14T10:49:33.370Z,14.90
2022-10-14T10:52:28.454Z,14.90
2022-10-14T10:55:01.003Z,14.90
2022-10-14T10:57:50.187Z,15.00
2022-10-14T11:00:26.771Z,14.90
2022-10-14T11:03:19.833Z,14.80
2022-10-14T11:05:56.404Z,14.80
2022-10-14T11:08:51.935Z,14.80
2022-10-14T11:11:50.779Z,14.80
2022-10-14T11:15:11.125Z,14.70
2022-10-14T11:18:19.538Z,14.70
2022-10-14T11:21:02.838Z,14.60
2022-10-14T11:23:48.210Z,14.50
2022-10-14T11:26:41.620Z,14.40
2022-10-14T11:29:22.801Z,14.50
2022-10-14T11:31:51.775Z,14.50
2022-10-14T11:35:07.982Z,14.30
2022-10-14T11:38:32.048Z,14.20
2022-10-14T11:41:32.529Z,14.20
2022-10-14T11:44:14.363Z,14.10
2022-10-14T11:46:49.327Z,14.10
2022-10-14T11:49:54.709Z,14.10
2022-10-14T11:52:38.059Z,14.00
2022-10-14T11:55:29.173Z,14.00
2022-10-14T11:58:10.991Z,14.00
2022-10-14T12:01:04.518Z,14.10
2022-10-14T12:03:46.390Z,14.10
2022-10-14T12:06:47.602Z,14.10
2022-10-14T12:09:41.977Z,14.10
2022-10-14T12:12:19.390Z,14.00
2022-10-14T12:15:00.134Z,14.00
2022-10-14T12:17:42.590Z,14.00
2022-10-14T12:21:17.460Z,13.90
2022-10-14T12:23:50.865Z,13.90
2022-10-14T12:26:20.440Z,13.90
2022-10-14T12:28:48.910Z,13.90
2022-10-14T12:31:38.376Z,14.00
2022-10-14T12:34:11.122Z,14.00
2022-10-14T12:36:47.049Z,14.00
2022-10-14T12:39:20.113Z,14.00
2022-10-14T12:42:01.986Z,14.00
2022-10-14T12:44:52.497Z,14.10
2022-10-14T12:47:29.083Z,14.00
2022-10-14T12:49:58.958Z,14.00
2022-10-14T12:52:38.810Z,14.00
2022-10-14T12:55:16.024Z,14.10
2022-10-14T12:57:43.470Z,14.10
2022-10-14T13:00:23.120Z,14.10
2022-10-14T13:02:57.084Z,14.20
2022-10-14T13:05:37.218Z,14.20
2022-10-14T13:08:16.240Z,14.20
2022-10-14T13:10:49.083Z,14.20
2022-10-14T13:13:58.366Z,14.20
2022-10-14T13:16:25.343Z,14.20
2022-10-14T13:18:59.981Z,14.20
2022-10-14T13:21:38.718Z,14.20
2022-10-14T13:24:35.384Z,14.30
2022-10-14T13:27:23.046Z,14.20
2022-10-14T13:30:03.778Z,14.20
2022-10-14T13:32:59.535Z,14.30
2022-10-14T13:35:48.916Z,14.20
2022-10-14T13:38:22.606Z,14.20
2022-10-14T13:40:56.963Z,14.10
2022-10-14T13:43:38.375Z,14.10
2022-10-14T13:46:15.197Z,14.10
2022-10-14T13:48:52.140Z,14.00
2022-10-14T13:51:50.638Z,14.10
2022-10-14T13:54:31.115Z,14.10
2022-10-14T13:57:43.086Z,14.10
2022-10-14T14:00:41.010Z,14.20
2022-10-14T14:03:24.930Z,14.20
2022-10-14T14:05:53.598Z,14.30
2022-10-14T14:08:39.686Z,14.30
2022-10-14T14:11:17.200Z,14.40
2022-10-14T14:14:01.415Z,14.50
2022-10-14T14:16:50.391Z,14.50
2022-10-14T14:19:35.341Z,14.60
2022-10-14T14:22:24.326Z,14.70
2022-10-14T14:24:52.158Z,14.70
2022-10-14T14:27:23.622Z,14.70
2022-10-14T14:29:53.842Z,14.70
2022-10-14T14:32:31.392Z,14.60
2022-10-14T14:34:59.192Z,14.60
2022-10-14T14:37:55.095Z,14.50
2022-10-14T14:40:27.091Z,14.50
2022-10-14T14:42:58.760Z,14.50
2022-10-14T14:45:56.571Z,14.60
2022-10-14T14:48:24.083Z,14.60
2022-10-14T14:50:51.335Z,14.60
2022-10-14T14:53:22.326Z,14.60
2022-10-14T14:56:10.396Z,14.60
2022-10-14T14:58:50.617Z,14.60
2022-10-14T15:01:28.622Z,14.70
2022-10-14T15:04:12.714Z,14.70
2022-10-14T15:07:01.588Z,14.70
2022-10-14T15:09:55.230Z,14.70
2022-10-14T15:12:50.600Z,14.60
2022-10-14T15:15:32.673Z,14.60
2022-10-14T15:18:24.598Z,14.60
2022-10-14T15:20:52.129Z,14.60
2022-10-14T15:23:40.997Z,14.60
2022-10-14T15:26:33.381Z,14.60
2022-10-14T15:32:15.260Z,14.50
2022-10-14T15:34:42.305Z,14.50
2022-10-14T15:37:13.736Z,14.50
2022-10-14T15:39:40.774Z,14.50
2022-10-14T15:42:13.530Z,14.50
2022-10-14T15:44:40.565Z,14.50
2022-10-14T15:47:21.711Z,14.40
2022-10-14T15:49:48.885Z,14.40
2022-10-14T15:52:18.539Z,14.40
2022-10-14T15:54:48.979Z,14.50
2022-10-14T15:57:16.886Z,14.40
2022-10-14T15:59:44.284Z,14.40
2022-10-14T16:02:28.996Z,14.40
2022-10-14T16:07:45.560Z,14.40
2022-10-14T16:10:17.006Z,14.40
2022-10-14T16:12:44.473Z,14.40
2022-10-14T16:15:28.486Z,14.40
2022-10-14T16:17:55.690Z,14.40
2022-10-14T16:20:26.655Z,14.40
2022-10-14T16:22:54.302Z,14.40
2022-10-14T16:25:43.648Z,14.40
2022-10-14T16:28:12.498Z,14.40
2022-10-14T16:30:49.435Z,14.40
2022-10-14T16:33:22.126Z,14.40
2022-10-14T16:35:55.426Z,14.40
2022-10-14T16:38:24.332Z,14.40
2022-10-14T16:41:01.050Z,14.30
2022-10-14T16:43:29.544Z,14.30
2022-10-14T16:46:03.648Z,14.30
2022-10-14T16:48:32.615Z,14.30
2022-10-14T16:51:00.127Z,14.30
2022-10-14T16:53:41.794Z,14.30
2022-10-14T16:56:30.545Z,14.30
2022-10-14T16:58:59.230Z,14.30
2022-10-14T17:01:26.715Z,14.30
2022-10-14T17:03:56.527Z,14.30
2022-10-14T17:06:27.177Z,14.30
2022-10-14T17:08:54.802Z,14.30
2022-10-14T17:11:25.016Z,14.30
2022-10-14T17:13:53.790Z,14.30
2022-10-14T17:16:21.408Z,14.30
2022-10-14T17:18:49.612Z,14.30
2022-10-14T17:21:17.072Z,14.20
2022-10-14T17:23:45.143Z,14.20
2022-10-14T17:26:18.385Z,14.20
2022-10-14T17:28:47.105Z,14.20
2022-10-14T17:31:19.104Z,14.20
2022-10-14T17:33:47.074Z,14.20
2022-10-14T17:36:27.759Z,14.20
2022-10-14T17:38:57.283Z,14.10
2022-10-14T17:41:26.753Z,14.10
2022-10-14T17:44:00.229Z,14.10
2022-10-14T17:46:29.519Z,14.00
2022-10-14T17:48:59.691Z,14.00
2022-10-14T17:51:28.649Z,14.00
2022-10-14T17:54:05.635Z,13.90
2022-10-14T17:56:35.750Z,13.90
2022-10-14T17:59:07.231Z,13.90
2022-10-14T18:02:00.943Z,13.80
2022-10-14T18:04:22.146Z,13.80
2022-10-14T18:06:49.263Z,13.80
2022-10-14T18:09:16.326Z,13.80
2022-10-14T18:14:38.774Z,13.80
2022-10-14T18:17:06.301Z,13.80
2022-10-14T18:19:35.166Z,13.80
2022-10-14T18:22:03.824Z,13.80
2022-10-14T18:24:30.967Z,13.80
2022-10-14T18:26:57.967Z,13.80
2022-10-14T18:29:25.171Z,13.90
2022-10-14T18:34:25.477Z,13.90
2022-10-14T18:36:52.506Z,14.00
2022-10-14T18:39:20.543Z,14.00
2022-10-14T18:41:48.149Z,14.00
2022-10-14T18:44:15.378Z,14.10
2022-10-14T18:46:42.569Z,14.10
2022-10-14T18:49:11.613Z,14.10
2022-10-14T18:51:40.611Z,14.10
2022-10-14T18:54:17.109Z,14.10
2022-10-14T18:56:45.239Z,14.10
2022-10-14T18:59:19.847Z,14.10
2022-10-14T19:01:48.623Z,14.10
2022-10-14T19:04:16.266Z,14.10
2022-10-14T19:06:48.973Z,14.00
2022-10-14T19:09:21.724Z,14.00
2022-10-14T19:11:52.856Z,13.90
2022-10-14T19:14:20.753Z,13.90
2022-10-14T19:16:49.547Z,13.80
2022-10-14T19:19:19.790Z,13.70
2022-10-14T19:21:50.457Z,13.70
2022-10-14T19:24:17.772Z,13.70
2022-10-14T19:26:47.499Z,13.60
2022-10-14T19:29:16.204Z,13.70
2022-10-14T19:31:44.215Z,13.60
2022-10-14T19:34:15.983Z,13.60
2022-10-14T19:36:44.514Z,13.60
2022-10-14T19:39:15.454Z,13.60
2022-10-14T19:41:45.091Z,13.60
2022-10-14T19:44:14.257Z,13.70
2022-10-14T19:46:42.118Z,13.70
2022-10-14T19:49:13.356Z,13.70
2022-10-14T19:51:40.730Z,13.70
2022-10-14T19:54:07.994Z,13.70
2022-10-14T19:56:35.087Z,13.70
2022-10-14T19:59:02.155Z,13.70
2022-10-14T20:01:31.097Z,13.70
2022-10-14T20:04:02.194Z,13.70
2022-10-14T20:06:33.873Z,13.70
2022-10-14T20:09:01.516Z,13.70
2022-10-14T20:11:29.898Z,13.70
2022-10-14T20:13:57.047Z,13.70
2022-10-14T20:16:27.191Z,13.70
2022-10-14T20:18:54.980Z,13.70
2022-10-14T20:21:22.052Z,13.60
2022-10-14T20:23:49.068Z,13.60
2022-10-14T20:26:20.034Z,13.60
2022-10-14T20:28:48.163Z,13.50
2022-10-14T20:31:22.627Z,13.60
2022-10-14T20:33:49.838Z,13.60
2022-10-14T20:36:20.659Z,13.50
2022-10-14T20:38:48.590Z,13.50
2022-10-14T20:41:24.907Z,13.50
2022-10-14T20:43:53.865Z,13.50
2022-10-14T20:46:22.656Z,13.40
2022-10-14T20:48:55.175Z,13.40
2022-10-14T20:51:22.863Z,13.40
2022-10-14T20:53:50.486Z,13.40
2022-10-14T20:56:18.532Z,13.40
2022-10-14T20:58:45.626Z,13.40
2022-10-14T21:01:17.754Z,13.40
2022-10-14T21:03:46.765Z,13.30
2022-10-14T21:06:17.224Z,13.30
2022-10-14T21:08:44.736Z,13.30
2022-10-14T21:11:15.792Z,13.30
2022-10-14T21:13:49.584Z,13.30
2022-10-14T21:16:32.691Z,13.30
2022-10-14T21:19:09.722Z,13.30
2022-10-14T21:21:42.716Z,13.30
2022-10-14T21:24:15.503Z,13.30
2022-10-14T21:26:42.568Z,13.30
2022-10-14T21:29:09.923Z,13.30
2022-10-14T21:31:37.163Z,13.30
2022-10-14T21:34:06.345Z,13.30
2022-10-14T21:36:35.721Z,13.40
2022-10-14T21:39:18.420Z,13.40
2022-10-14T21:41:46.366Z,13.30
2022-10-14T21:44:20.039Z,13.40
2022-10-14T21:46:48.170Z,13.40
2022-10-14T21:49:15.675Z,13.40
2022-10-14T21:51:42.886Z,13.40
2022-10-14T21:54:13.244Z,13.40
2022-10-14T21:56:40.413Z,13.40
2022-10-14T21:59:07.855Z,13.40
2022-10-14T22:01:35.044Z,13.40
2022-10-14T22:04:05.656Z,13.40
2022-10-14T22:06:36.641Z,13.40
2022-10-14T22:09:07.238Z,13.40
2022-10-14T22:11:43.964Z,13.40
2022-10-14T22:14:17.157Z,13.40
2022-10-14T22:16:48.785Z,13.40
2022-10-14T22:19:16.257Z,13.50
2022-10-14T22:21:46.375Z,13.50
2022-10-14T22:24:13.995Z,13.50
2022-10-14T22:26:41.819Z,13.50
2022-10-14T22:29:17.719Z,13.50
2022-10-14T22:31:45.862Z,13.50
2022-10-14T22:34:17.830Z,13.50
2022-10-14T22:36:45.283Z,13.60
2022-10-14T22:39:16.437Z,13.60
2022-10-14T22:41:44.694Z,13.60
2022-10-14T22:44:11.881Z,13.60
2022-10-14T22:46:40.582Z,13.70
2022-10-14T22:49:07.762Z,13.70
2022-10-14T22:51:40.477Z,13.80
2022-10-14T22:54:09.081Z,13.80
2022-10-14T22:56:36.196Z,13.80
2022-10-14T22:59:10.578Z,13.80
2022-10-14T23:01:39.218Z,13.80
2022-10-14T23:04:06.395Z,13.80
2022-10-14T23:06:33.562Z,13.80
2022-10-14T23:09:01.249Z,13.80
2022-10-14T23:11:30.819Z,13.80
2022-10-14T23:14:00.301Z,13.90
2022-10-14T23:16:30.381Z,13.90
2022-10-14T23:18:59.155Z,13.90
2022-10-14T23:21:30.363Z,13.90
2022-10-14T23:24:01.092Z,13.90
2022-10-14T23:26:33.235Z,13.90
2022-10-14T23:29:02.404Z,13.90
2022-10-14T23:31:33.433Z,14.00
2022-10-14T23:34:05.441Z,14.00
2022-10-14T23:36:35.842Z,14.00
2022-10-14T23:39:03.909Z,14.00
2022-10-14T23:41:30.974Z,14.00
2022-10-14T23:43:58.184Z,14.00
2022-10-14T23:46:25.315Z,14.00
2022-10-14T23:49:06.582Z,14.00
2022-10-14T23:51:35.461Z,14.00
2022-10-14T23:54:02.624Z,14.00
2022-10-14T23:56:29.668Z,14.00
2022-10-14T23:58:56.787Z,14.00
